Terminal Aerodrome Forecast
Issued by NWS

Home | Current Version | Previous Version | Text Only | Print | Product List | Glossary On
Versions: 1 2 3 4 5 6 7 8 9 10 11 12 13 14
933
FTUS45 KPSR 190530
TAFBLH
TAF
KBLH 190530Z 1906/2006 20008KT P6SM BKN080 BKN150
     FM190800 19008KT P6SM -SHRA BKN060 OVC100
     FM191400 21010KT P6SM BKN080 OVC120
     FM192000 20015G22KT P6SM -SHRA BKN060 OVC100
     FM200200 22012G18KT P6SM SCT080 BKN120=

USA.gov is the U.S. government's official web portal to all federal, state and local government web resources and services.